Time;durP1;ratioP1;P1;durP2;ratioP2;P2;SDS_P1;SDS_P2;PMS_P1;PMS_P2;Temp;Humidity;BMP_temperature;BMP_pressure;BME280_temperature;BME280_humidity;BME280_pressure;Samples;Min_cycle;Max_cycle;Signal;HPM_P1;HPM_P2
2022/07/27 00:01:15;;;;;;;1.88;0.80;;;24.00;59.20;;;;;;5072723;28;20025;-68
2022/07/27 00:03:42;;;;;;;0.70;0.70;;;24.00;59.20;;;;;;5071712;28;20028;-68
2022/07/27 00:06:07;;;;;;;0.63;0.57;;;24.00;59.20;;;;;;5071719;28;20551;-68
2022/07/27 00:08:33;;;;;;;1.17;0.65;;;24.00;59.20;;;;;;5072753;28;20024;-68
2022/07/27 00:10:59;;;;;;;1.25;0.70;;;24.00;59.30;;;;;;5071540;28;20027;-68
2022/07/27 00:13:25;;;;;;;0.93;0.50;;;24.00;59.30;;;;;;5072643;28;20491;-68
2022/07/27 00:15:50;;;;;;;1.17;0.70;;;24.00;59.30;;;;;;5065004;28;20487;-68
2022/07/27 00:18:16;;;;;;;1.23;0.60;;;24.00;59.30;;;;;;5052926;28;20483;-68
2022/07/27 00:20:41;;;;;;;1.17;0.75;;;24.00;59.30;;;;;;5052575;28;20029;-68
2022/07/27 00:23:07;;;;;;;0.93;0.50;;;24.00;59.40;;;;;;5052729;28;20021;-68
2022/07/27 00:25:34;;;;;;;1.73;0.70;;;24.00;59.50;;;;;;5051495;28;20025;-68
2022/07/27 00:27:59;;;;;;;0.55;0.52;;;24.00;59.50;;;;;;5050992;28;20018;-68
2022/07/27 00:30:25;;;;;;;0.60;0.43;;;24.00;59.50;;;;;;5052473;28;20024;-68
2022/07/27 00:32:51;;;;;;;2.55;0.60;;;24.00;59.50;;;;;;5051181;28;20112;-68
2022/07/27 00:35:16;;;;;;;1.63;0.60;;;24.00;59.60;;;;;;5051139;28;20487;-68
2022/07/27 00:37:42;;;;;;;2.08;1.00;;;24.00;59.60;;;;;;5051426;28;20032;-68
2022/07/27 00:40:08;;;;;;;0.60;0.50;;;24.00;59.80;;;;;;5052231;28;20025;-68
2022/07/27 00:42:34;;;;;;;0.70;0.70;;;24.00;59.90;;;;;;5052058;28;20082;-68
2022/07/27 00:44:59;;;;;;;1.85;0.60;;;24.00;59.80;;;;;;5050912;28;20438;-68
2022/07/27 00:47:25;;;;;;;1.55;0.68;;;24.00;60.00;;;;;;5051104;28;20438;-68
2022/07/27 00:49:51;;;;;;;0.80;0.70;;;24.00;60.00;;;;;;5050921;28;20021;-68
2022/07/27 00:52:16;;;;;;;3.50;0.70;;;24.00;60.10;;;;;;5051135;28;20040;-68
2022/07/27 00:54:42;;;;;;;0.85;0.55;;;24.00;60.20;;;;;;5034445;28;20048;-68
2022/07/27 00:57:12;;;;;;;1.17;0.55;;;24.00;60.30;;;;;;5034456;28;20032;-68
2022/07/27 00:59:38;;;;;;;0.93;0.60;;;24.00;60.40;;;;;;5034424;28;20025;-68
2022/07/27 01:02:04;;;;;;;1.48;0.60;;;24.00;60.50;;;;;;5051987;28;20117;-68
2022/07/27 01:04:29;;;;;;;1.30;0.70;;;24.00;60.60;;;;;;5034501;28;20472;-68
2022/07/27 01:06:55;;;;;;;1.15;0.50;;;24.00;60.60;;;;;;5052067;28;20047;-68
2022/07/27 01:12:07;;;;;;;1.98;0.60;;;24.00;60.70;;;;;;5051271;28;20410;-68
2022/07/27 01:14:32;;;;;;;0.77;0.60;;;24.00;60.70;;;;;;5050577;28;20025;-68
2022/07/27 01:16:59;;;;;;;2.08;0.68;;;24.00;60.70;;;;;;5034077;28;20028;-69
2022/07/27 01:19:24;;;;;;;0.60;0.60;;;24.00;60.80;;;;;;5051849;28;20020;-68
2022/07/27 01:21:50;;;;;;;0.75;0.60;;;23.90;60.70;;;;;;5050749;28;20037;-68
2022/07/27 01:24:16;;;;;;;2.38;0.80;;;23.90;60.70;;;;;;5052074;28;20021;-69
2022/07/27 01:26:41;;;;;;;1.42;0.70;;;23.90;60.70;;;;;;5050778;28;20032;-68
2022/07/27 01:29:07;;;;;;;2.47;0.70;;;23.90;60.60;;;;;;5053621;28;20029;-68
2022/07/27 01:31:33;;;;;;;1.67;0.70;;;23.90;60.80;;;;;;5054421;28;20100;-68
2022/07/27 01:33:58;;;;;;;1.27;0.60;;;23.90;60.80;;;;;;5055498;28;20476;-68
2022/07/27 01:36:24;;;;;;;1.48;0.65;;;23.90;60.70;;;;;;5054684;28;20471;-68
2022/07/27 01:38:50;;;;;;;0.40;0.40;;;23.90;60.70;;;;;;5055605;28;20072;-68
2022/07/27 01:41:15;;;;;;;1.30;0.55;;;23.90;60.70;;;;;;5055605;28;20091;-68
2022/07/27 01:43:41;;;;;;;1.27;0.60;;;23.90;60.70;;;;;;5055515;28;20066;-68
2022/07/27 01:46:07;;;;;;;1.98;0.65;;;23.90;60.70;;;;;;5055521;28;20025;-68
2022/07/27 01:48:32;;;;;;;0.70;0.60;;;23.90;60.60;;;;;;5055431;28;20039;-68
2022/07/27 01:50:58;;;;;;;2.40;0.77;;;23.90;60.60;;;;;;5054277;28;20029;-69
2022/07/27 01:53:24;;;;;;;1.60;0.50;;;23.90;60.60;;;;;;5037833;28;20051;-68
2022/07/27 01:55:49;;;;;;;2.10;0.50;;;23.90;60.70;;;;;;5055391;28;20112;-68
2022/07/27 01:58:15;;;;;;;1.00;0.70;;;23.90;60.70;;;;;;5054020;28;20036;-68
2022/07/27 02:00:41;;;;;;;1.02;0.68;;;23.90;60.60;;;;;;5054081;28;20036;-68
2022/07/27 02:03:07;;;;;;;2.28;0.70;;;23.90;60.70;;;;;;5053981;28;20122;-68
2022/07/27 02:05:33;;;;;;;0.57;0.50;;;23.90;60.70;;;;;;5055157;28;20487;-68
2022/07/27 02:07:59;;;;;;;2.00;0.70;;;23.90;60.70;;;;;;5037469;28;20028;-68
2022/07/27 02:10:25;;;;;;;3.60;0.77;;;23.90;60.70;;;;;;5053870;28;20029;-68
2022/07/27 02:12:51;;;;;;;3.75;0.80;;;23.90;60.70;;;;;;5054931;28;20064;-68
2022/07/27 02:15:18;;;;;;;2.25;0.60;;;23.90;60.60;;;;;;5037087;28;20025;-68
2022/07/27 02:17:44;;;;;;;2.25;0.70;;;23.90;60.70;;;;;;5054021;28;20013;-68
2022/07/27 02:20:10;;;;;;;0.50;0.50;;;23.90;60.60;;;;;;5053633;28;20033;-68
2022/07/27 02:22:36;;;;;;;2.45;0.60;;;23.90;60.60;;;;;;5053638;28;20021;-68
2022/07/27 02:25:02;;;;;;;1.13;0.60;;;23.90;60.60;;;;;;5053376;28;20031;-68
2022/07/27 02:27:28;;;;;;;2.03;0.63;;;23.90;60.60;;;;;;5053524;28;20021;-68
2022/07/27 02:29:53;;;;;;;0.77;0.60;;;23.90;60.60;;;;;;5053710;28;20033;-68
2022/07/27 02:32:19;;;;;;;1.23;0.65;;;23.90;60.60;;;;;;5054749;28;20025;-68
2022/07/27 02:34:45;;;;;;;1.88;0.70;;;23.90;60.70;;;;;;5054510;28;20028;-68
2022/07/27 02:37:11;;;;;;;1.95;0.80;;;23.90;60.70;;;;;;5054619;28;20112;-68
2022/07/27 02:39:36;;;;;;;2.92;0.60;;;23.90;60.60;;;;;;5053093;28;20036;-68
2022/07/27 02:42:02;;;;;;;1.05;0.60;;;23.90;60.70;;;;;;5053134;28;20036;-68
2022/07/27 02:44:28;;;;;;;3.05;0.60;;;23.90;60.60;;;;;;5053265;28;20025;-68
2022/07/27 02:46:54;;;;;;;1.27;0.70;;;23.90;60.60;;;;;;5054546;28;20032;-68
2022/07/27 02:49:19;;;;;;;1.83;0.80;;;23.90;60.60;;;;;;5053248;28;20407;-68
2022/07/27 02:51:51;;;;;;;0.93;0.70;;;23.90;60.60;;;;;;5054286;28;20487;-68
2022/07/27 02:54:18;;;;;;;1.38;0.57;;;23.90;60.60;;;;;;5052903;28;20049;-68
2022/07/27 02:56:43;;;;;;;0.40;0.40;;;23.80;60.50;;;;;;5053140;28;20383;-68
2022/07/27 02:59:09;;;;;;;2.03;0.63;;;23.80;60.50;;;;;;5052767;28;20029;-68
2022/07/27 03:01:35;;;;;;;1.13;0.50;;;23.90;60.50;;;;;;5057729;28;20025;-68
2022/07/27 03:04:00;;;;;;;2.30;0.57;;;23.90;60.50;;;;;;5073906;28;20032;-68
2022/07/27 03:06:26;;;;;;;1.08;0.50;;;23.80;61.50;;;;;;5074290;28;20027;-68
2022/07/27 03:08:52;;;;;;;0.73;0.52;;;23.80;60.50;;;;;;5073739;28;20051;-68
2022/07/27 03:11:17;;;;;;;1.95;0.80;;;23.80;60.50;;;;;;5073942;28;20445;-68
2022/07/27 03:13:44;;;;;;;1.92;0.70;;;23.90;60.50;;;;;;5072622;28;20052;-68
2022/07/27 03:16:09;;;;;;;0.95;0.60;;;23.80;60.40;;;;;;5065070;28;20035;-68
2022/07/27 03:18:35;;;;;;;1.02;0.68;;;23.80;60.50;;;;;;5052688;28;20108;-68
2022/07/27 03:21:00;;;;;;;1.85;0.50;;;23.80;60.40;;;;;;5053764;28;20468;-68
2022/07/27 03:23:26;;;;;;;2.08;0.60;;;23.80;60.50;;;;;;5053460;28;20031;-68
2022/07/27 03:25:51;;;;;;;3.45;0.70;;;23.80;60.50;;;;;;5053830;28;20017;-68
2022/07/27 03:28:17;;;;;;;0.80;0.57;;;23.80;60.50;;;;;;5053671;28;20029;-68
2022/07/27 03:30:43;;;;;;;1.45;0.60;;;23.80;61.50;;;;;;5053621;28;20507;-68
2022/07/27 03:33:08;;;;;;;0.55;0.40;;;23.80;60.50;;;;;;5053387;28;20028;-68
2022/07/27 03:35:34;;;;;;;0.57;0.55;;;23.80;60.50;;;;;;5053455;28;20021;-68
2022/07/27 03:38:00;;;;;;;0.80;0.50;;;23.80;60.50;;;;;;5052092;28;20455;-68
2022/07/27 03:40:28;;;;;;;1.38;0.63;;;23.70;61.50;;;;;;5052209;28;20026;-68
2022/07/27 03:42:53;;;;;;;1.27;0.40;;;23.70;60.50;;;;;;5053383;28;20032;-68
2022/07/27 03:45:19;;;;;;;0.52;0.50;;;23.70;60.50;;;;;;5053028;28;20017;-68
2022/07/27 03:47:45;;;;;;;0.70;0.70;;;23.80;60.60;;;;;;5035608;28;20025;-68
2022/07/27 03:50:11;;;;;;;0.50;0.50;;;23.80;60.60;;;;;;5052856;28;20122;-68
2022/07/27 03:52:36;;;;;;;0.73;0.50;;;23.70;60.60;;;;;;5052910;28;20052;-68
2022/07/27 03:55:02;;;;;;;0.60;0.50;;;23.70;60.60;;;;;;5052082;28;20479;-68
2022/07/27 03:57:28;;;;;;;1.85;0.55;;;23.70;60.50;;;;;;5051736;28;20025;-68
2022/07/27 03:59:54;;;;;;;0.70;0.50;;;23.70;60.50;;;;;;5053172;28;20017;-68
2022/07/27 04:02:19;;;;;;;0.98;0.50;;;23.70;60.50;;;;;;5053024;28;20025;-68
2022/07/27 04:04:45;;;;;;;2.88;0.63;;;23.70;60.60;;;;;;5052826;28;20621;-68
2022/07/27 04:07:10;;;;;;;5.00;0.60;;;23.70;60.50;;;;;;5052552;28;20103;-68
2022/07/27 04:09:36;;;;;;;1.75;0.68;;;23.70;60.50;;;;;;5051747;28;20056;-68
2022/07/27 04:12:02;;;;;;;1.08;0.57;;;23.70;60.50;;;;;;5052579;28;20075;-68
2022/07/27 04:14:28;;;;;;;0.57;0.50;;;23.70;60.50;;;;;;5052622;28;20419;-68
2022/07/27 04:16:53;;;;;;;1.02;0.60;;;23.70;60.50;;;;;;5051416;28;20029;-68
2022/07/27 04:19:19;;;;;;;0.60;0.43;;;23.70;60.50;;;;;;5052669;28;20403;-68
2022/07/27 04:21:45;;;;;;;2.55;0.50;;;23.70;60.50;;;;;;5051276;28;20071;-68
2022/07/27 04:24:10;;;;;;;0.40;0.40;;;23.70;60.50;;;;;;5051332;28;20105;-68
2022/07/27 04:26:36;;;;;;;2.28;0.50;;;23.70;60.50;;;;;;5052673;28;20032;-68
2022/07/27 04:29:02;;;;;;;0.98;0.50;;;23.70;60.60;;;;;;5052548;28;20445;-68
2022/07/27 04:31:27;;;;;;;1.10;0.35;;;23.70;60.70;;;;;;5051239;28;20099;-68
2022/07/27 04:33:53;;;;;;;0.50;0.50;;;23.60;60.60;;;;;;5052346;28;20025;-68
2022/07/27 04:36:19;;;;;;;1.58;0.68;;;23.70;60.70;;;;;;5050906;28;20384;-68
2022/07/27 04:38:44;;;;;;;1.05;0.60;;;23.60;60.70;;;;;;5052367;28;20494;-68
2022/07/27 04:41:10;;;;;;;0.65;0.55;;;23.70;60.70;;;;;;5052180;28;20036;-68
2022/07/27 04:43:36;;;;;;;1.33;0.45;;;23.60;60.70;;;;;;5067838;28;20020;-68
2022/07/27 04:46:03;;;;;;;0.65;0.57;;;23.60;60.90;;;;;;5070781;28;20025;-68
2022/07/27 04:48:32;;;;;;;0.95;0.65;;;23.70;60.90;;;;;;5052848;28;20008;-68
2022/07/27 04:50:58;;;;;;;1.65;0.80;;;23.60;61.00;;;;;;5069284;28;20490;-68
2022/07/27 04:53:23;;;;;;;0.70;0.60;;;23.70;61.20;;;;;;5069320;28;20056;-68
2022/07/27 04:55:49;;;;;;;1.13;0.65;;;23.70;61.30;;;;;;5070679;28;20044;-68
2022/07/27 04:58:15;;;;;;;0.50;0.50;;;23.70;61.30;;;;;;5070441;28;20024;-68
2022/07/27 05:00:42;;;;;;;0.45;0.45;;;23.60;61.20;;;;;;5069203;28;20024;-68
2022/07/27 05:03:08;;;;;;;0.63;0.50;;;23.70;61.30;;;;;;5054515;28;20017;-68
2022/07/27 05:05:33;;;;;;;0.70;0.43;;;23.70;61.30;;;;;;5073214;28;20020;-68
2022/07/27 05:07:59;;;;;;;2.53;0.47;;;23.60;61.30;;;;;;5074671;28;20020;-68
2022/07/27 05:10:25;;;;;;;0.65;0.60;;;23.70;61.40;;;;;;5074719;28;20466;-68
2022/07/27 05:12:50;;;;;;;0.50;0.50;;;23.70;61.50;;;;;;5073113;28;20506;-68
2022/07/27 05:15:16;;;;;;;1.77;1.02;;;23.70;61.40;;;;;;5071862;28;20028;-68
2022/07/27 05:17:42;;;;;;;0.47;0.47;;;23.70;61.30;;;;;;5054766;28;20078;-68
2022/07/27 05:20:08;;;;;;;1.20;0.57;;;23.70;61.40;;;;;;5053128;28;20029;-68
2022/07/27 05:22:34;;;;;;;2.85;0.70;;;23.60;61.30;;;;;;5053037;28;20021;-68
2022/07/27 05:24:59;;;;;;;0.50;0.50;;;23.70;61.40;;;;;;5053461;28;20104;-68
2022/07/27 05:27:25;;;;;;;0.40;0.40;;;23.60;61.20;;;;;;5054413;28;20013;-68
2022/07/27 05:29:50;;;;;;;1.27;0.50;;;23.60;61.30;;;;;;5054566;28;20021;-69
2022/07/27 05:32:16;;;;;;;0.40;0.40;;;23.70;61.50;;;;;;5054449;28;20031;-68
2022/07/27 05:34:42;;;;;;;0.77;0.70;;;23.70;61.40;;;;;;5061363;28;20081;-68
2022/07/27 05:37:08;;;;;;;0.90;0.40;;;23.70;61.00;;;;;;5073024;28;20032;-68
2022/07/27 05:39:33;;;;;;;0.50;0.50;;;23.60;58.50;;;;;;5072236;28;20055;-68
2022/07/27 05:41:59;;;;;;;0.47;0.47;;;23.60;58.20;;;;;;5073769;28;20024;-70
2022/07/27 05:44:25;;;;;;;2.00;0.68;;;23.60;58.40;;;;;;5072548;28;20020;-69
2022/07/27 05:46:50;;;;;;;0.73;0.40;;;23.50;58.70;;;;;;5072713;28;20021;-69
2022/07/27 05:49:16;;;;;;;0.60;0.40;;;23.50;58.70;;;;;;5051778;28;20021;-69
2022/07/27 05:51:42;;;;;;;0.73;0.50;;;23.50;58.60;;;;;;5053971;28;20043;-69
2022/07/27 05:54:08;;;;;;;0.50;0.50;;;23.50;58.50;;;;;;5054828;28;20048;-69
2022/07/27 05:56:34;;;;;;;1.40;0.40;;;23.50;58.50;;;;;;5054694;28;20475;-68
2022/07/27 05:59:00;;;;;;;2.20;0.80;;;23.50;58.40;;;;;;5054189;28;20033;-68
2022/07/27 06:01:26;;;;;;;0.85;0.47;;;23.50;58.50;;;;;;5055055;28;20021;-68
2022/07/27 06:03:52;;;;;;;1.27;0.60;;;23.50;58.50;;;;;;5053688;28;20029;-68
2022/07/27 06:09:01;;;;;;;0.52;0.40;;;23.40;58.40;;;;;;5054198;28;20154;-68
2022/07/27 06:11:27;;;;;;;1.40;0.55;;;23.40;58.40;;;;;;5054980;28;20103;-68
2022/07/27 06:13:54;;;;;;;0.82;0.50;;;23.40;58.30;;;;;;5053499;28;20056;-69
2022/07/27 06:16:20;;;;;;;0.30;0.30;;;23.40;58.40;;;;;;5053730;28;20047;-68
2022/07/27 06:18:46;;;;;;;1.00;0.50;;;23.40;58.30;;;;;;5053318;28;20111;-69
2022/07/27 06:21:12;;;;;;;0.65;0.47;;;23.40;58.40;;;;;;5053687;28;20104;-68
2022/07/27 06:23:37;;;;;;;0.60;0.50;;;23.40;58.40;;;;;;5052149;28;20496;-69
2022/07/27 06:26:03;;;;;;;0.50;0.30;;;23.40;58.30;;;;;;5052167;28;20021;-68
2022/07/27 06:28:29;;;;;;;1.23;0.57;;;23.40;58.40;;;;;;5052031;28;20498;-69
2022/07/27 06:30:55;;;;;;;0.65;0.47;;;23.40;58.40;;;;;;5052937;28;20040;-68
2022/07/27 06:33:27;;;;;;;0.90;0.47;;;23.40;58.40;;;;;;5052402;28;20475;-68
2022/07/27 06:35:57;;;;;;;0.75;0.55;;;23.40;58.50;;;;;;5050844;28;20124;-68
2022/07/27 06:38:23;;;;;;;0.57;0.50;;;23.40;58.40;;;;;;5051433;28;20049;-68
2022/07/27 06:40:51;;;;;;;0.90;0.43;;;23.40;58.40;;;;;;5051454;28;20146;-68
2022/07/27 06:43:27;;;;;;;0.73;0.60;;;23.40;58.50;;;;;;5050011;28;20116;-68
2022/07/27 06:45:53;;;;;;;1.00;0.50;;;23.40;58.40;;;;;;5050410;28;20434;-68
2022/07/27 06:48:20;;;;;;;1.52;0.50;;;23.30;58.40;;;;;;5051249;28;20021;-68
2022/07/27 06:50:46;;;;;;;0.90;0.52;;;23.30;58.40;;;;;;5052447;28;20017;-68
2022/07/27 06:53:11;;;;;;;0.73;0.50;;;23.40;58.60;;;;;;5054868;28;20043;-68
2022/07/27 06:55:37;;;;;;;0.70;0.40;;;23.30;58.50;;;;;;5054563;28;20021;-67
2022/07/27 06:58:03;;;;;;;1.58;0.85;;;23.30;58.50;;;;;;5053748;28;20025;-68
2022/07/27 07:00:28;;;;;;;2.47;0.80;;;23.30;58.60;;;;;;5052465;28;20418;-68
2022/07/27 07:02:58;;;;;;;4.53;1.30;;;23.30;58.60;;;;;;5053833;28;20395;-68
2022/07/27 07:05:24;;;;;;;4.85;1.17;;;23.30;58.60;;;;;;5050405;28;20017;-68
2022/07/27 07:07:50;;;;;;;7.13;1.63;;;23.30;58.70;;;;;;5052518;28;20036;-68
2022/07/27 07:10:16;;;;;;;8.38;1.63;;;23.30;58.70;;;;;;5036193;28;20056;-68
2022/07/27 07:12:41;;;;;;;4.60;1.50;;;23.30;58.70;;;;;;5053614;28;20076;-68
2022/07/27 07:15:07;;;;;;;3.72;1.50;;;23.30;58.70;;;;;;5053675;28;20075;-68
2022/07/27 07:17:33;;;;;;;9.00;2.00;;;23.30;58.80;;;;;;5032785;28;20398;-68
2022/07/27 07:19:59;;;;;;;5.07;1.55;;;23.30;58.80;;;;;;5031397;28;20021;-68
2022/07/27 07:22:25;;;;;;;7.75;1.75;;;23.30;58.90;;;;;;5045474;28;20033;-68
2022/07/27 07:24:50;;;;;;;11.68;2.10;;;23.30;58.90;;;;;;5052293;28;20399;-68
2022/07/27 07:27:19;;;;;;;7.70;2.03;;;23.20;59.90;;;;;;5052112;28;20086;-68
2022/07/27 07:29:45;;;;;;;6.28;2.30;;;23.20;58.90;;;;;;5052172;28;20367;-68
2022/07/27 07:32:10;;;;;;;5.40;1.65;;;23.20;58.90;;;;;;5052474;28;20028;-68
2022/07/27 07:34:36;;;;;;;6.38;2.13;;;23.30;59.00;;;;;;5035570;28;20441;-68
2022/07/27 07:37:02;;;;;;;4.75;1.85;;;23.20;58.90;;;;;;5052443;28;20074;-68
2022/07/27 07:39:27;;;;;;;4.60;1.95;;;23.20;58.90;;;;;;5053129;28;20735;-68
2022/07/27 07:41:53;;;;;;;5.13;1.85;;;23.30;59.00;;;;;;5053410;28;20483;-68
2022/07/27 07:44:18;;;;;;;6.05;2.05;;;23.20;58.90;;;;;;5053389;28;20017;-68
2022/07/27 07:46:44;;;;;;;6.65;2.15;;;23.20;58.90;;;;;;5053340;28;20025;-68
2022/07/27 07:49:10;;;;;;;5.00;2.10;;;23.20;59.00;;;;;;5053238;28;20067;-68
2022/07/27 07:51:36;;;;;;;6.05;2.00;;;23.20;59.00;;;;;;5052933;28;20039;-68
2022/07/27 07:54:02;;;;;;;7.05;1.98;;;23.20;59.00;;;;;;5052072;28;20025;-68
2022/07/27 07:56:27;;;;;;;7.18;2.13;;;23.20;59.00;;;;;;5053052;28;20049;-68
2022/07/27 07:58:53;;;;;;;4.93;2.08;;;23.20;59.00;;;;;;5051685;28;20483;-68
2022/07/27 08:01:19;;;;;;;7.10;2.45;;;23.20;59.00;;;;;;5051669;28;20035;-68
2022/07/27 08:03:44;;;;;;;7.13;2.25;;;23.20;59.00;;;;;;5052968;28;20029;-68
2022/07/27 08:06:10;;;;;;;7.38;2.50;;;23.20;59.00;;;;;;5052773;28;20021;-68
2022/07/27 08:08:36;;;;;;;7.80;2.25;;;23.20;59.00;;;;;;5052786;28;20024;-68
2022/07/27 08:11:01;;;;;;;6.60;2.45;;;23.20;59.00;;;;;;5051757;28;20099;-68
2022/07/27 08:13:27;;;;;;;8.20;2.80;;;23.20;59.00;;;;;;5052213;28;20500;-68
2022/07/27 08:15:53;;;;;;;6.18;2.10;;;23.20;59.10;;;;;;5052635;28;20029;-68
2022/07/27 08:18:18;;;;;;;6.50;2.40;;;23.20;59.10;;;;;;5051667;28;20154;-68
2022/07/27 08:20:47;;;;;;;7.47;2.10;;;23.20;59.10;;;;;;5034766;28;20025;-68
2022/07/27 08:23:13;;;;;;;7.32;2.97;;;23.20;59.10;;;;;;5052751;28;20028;-68
2022/07/27 08:25:38;;;;;;;7.97;2.70;;;23.20;59.10;;;;;;5052400;28;20505;-68
2022/07/27 08:28:04;;;;;;;7.88;2.25;;;23.10;59.00;;;;;;5052291;28;20494;-68
2022/07/27 08:30:30;;;;;;;6.50;2.28;;;23.10;59.00;;;;;;5051242;28;20014;-68
2022/07/27 08:32:59;;;;;;;7.30;2.60;;;23.20;59.10;;;;;;5052540;28;20024;-68
2022/07/27 08:35:26;;;;;;;7.85;2.45;;;23.10;59.10;;;;;;5052461;28;20031;-68
2022/07/27 08:37:51;;;;;;;8.18;2.40;;;23.20;59.10;;;;;;5052366;28;20103;-68
2022/07/27 08:40:18;;;;;;;7.15;2.58;;;23.20;59.20;;;;;;5052385;28;20053;-68
2022/07/27 08:42:43;;;;;;;7.43;2.85;;;23.10;59.10;;;;;;5034487;28;20029;-68
2022/07/27 08:45:10;;;;;;;7.07;2.38;;;23.10;59.10;;;;;;5051355;28;20029;-68
2022/07/27 08:47:36;;;;;;;7.57;2.70;;;23.10;59.10;;;;;;5051174;28;20053;-68
2022/07/27 08:50:02;;;;;;;6.70;2.53;;;23.10;59.10;;;;;;5051029;28;20265;-68
2022/07/27 08:52:28;;;;;;;7.13;2.28;;;23.10;59.10;;;;;;5052319;28;20026;-68
2022/07/27 08:54:53;;;;;;;5.18;2.28;;;23.20;59.10;;;;;;5034396;28;20032;-68
2022/07/27 08:57:20;;;;;;;7.57;2.55;;;23.10;59.10;;;;;;5051115;28;20078;-68
2022/07/27 08:59:45;;;;;;;5.10;2.10;;;23.10;59.10;;;;;;5052133;28;20548;-68
2022/07/27 09:02:12;;;;;;;5.00;2.53;;;23.10;59.10;;;;;;5050959;28;20028;-68
2022/07/27 09:04:40;;;;;;;8.57;2.70;;;23.10;59.00;;;;;;5052017;28;20463;-68
2022/07/27 09:07:06;;;;;;;4.43;1.83;;;23.10;59.10;;;;;;5050941;28;20079;-68
2022/07/27 09:09:53;;;;;;;4.97;2.38;;;23.10;59.10;;;;;;5052017;28;20021;-68
2022/07/27 09:12:20;;;;;;;5.80;2.28;;;23.10;59.00;;;;;;5051880;28;20037;-68
2022/07/27 09:14:45;;;;;;;5.13;2.00;;;23.10;59.10;;;;;;5034233;28;20024;-68
2022/07/27 09:17:26;;;;;;;8.00;2.58;;;23.10;59.00;;;;;;5052163;28;20364;-68
2022/07/27 09:20:17;;;;;;;7.05;2.60;;;23.20;59.00;;;;;;5051994;28;20027;-68
2022/07/27 09:22:53;;;;;;;6.80;2.05;;;23.10;59.00;;;;;;5036737;28;20036;-68
2022/07/27 09:25:23;;;;;;;4.45;2.13;;;23.10;59.00;;;;;;5034361;28;20112;-68
2022/07/27 09:27:53;;;;;;;5.38;2.35;;;23.10;59.10;;;;;;5050644;28;20526;-68
2022/07/27 09:30:20;;;;;;;4.65;2.15;;;23.10;59.00;;;;;;5052124;28;20104;-68
2022/07/27 09:32:57;;;;;;;4.43;1.90;;;23.10;60.00;;;;;;5050613;28;20025;-68
2022/07/27 09:35:29;;;;;;;3.90;1.95;;;23.10;59.00;;;;;;5051818;28;20507;-68
2022/07/27 09:37:56;;;;;;;5.45;2.38;;;23.10;59.10;;;;;;5034868;28;20041;-68
2022/07/27 09:40:22;;;;;;;4.15;2.17;;;23.10;59.10;;;;;;5034079;28;20025;-68
2022/07/27 09:43:11;;;;;;;5.68;2.17;;;23.10;59.10;;;;;;5033902;28;20064;-68
2022/07/27 09:45:37;;;;;;;6.43;2.10;;;23.10;59.00;;;;;;5050822;28;20499;-68
2022/07/27 09:48:17;;;;;;;4.80;2.05;;;23.10;59.10;;;;;;5034098;28;20029;-68
2022/07/27 09:50:58;;;;;;;4.50;2.00;;;23.10;59.10;;;;;;5038544;28;20021;-68
2022/07/27 09:53:28;;;;;;;3.93;1.93;;;23.10;59.20;;;;;;5055434;28;20017;-68
2022/07/27 09:56:16;;;;;;;6.75;2.40;;;23.10;59.20;;;;;;5055088;28;20017;-68
2022/07/27 09:58:48;;;;;;;2.75;1.92;;;23.10;59.20;;;;;;5054179;28;20044;-68
2022/07/27 10:01:20;;;;;;;3.88;2.15;;;23.10;59.20;;;;;;5055108;28;20029;-68
2022/07/27 10:03:46;;;;;;;3.78;1.70;;;23.10;59.20;;;;;;5055219;28;20100;-68
2022/07/27 10:06:12;;;;;;;5.90;1.92;;;23.10;59.30;;;;;;5053867;28;20028;-68
2022/07/27 10:08:39;;;;;;;6.10;2.45;;;23.10;59.30;;;;;;5037277;28;20112;-68
2022/07/27 10:11:05;;;;;;;3.92;2.20;;;23.10;59.20;;;;;;5053866;28;20100;-68
2022/07/27 10:13:31;;;;;;;4.20;2.17;;;23.10;59.30;;;;;;5054823;28;20124;-68
2022/07/27 10:15:56;;;;;;;3.40;2.13;;;23.10;59.30;;;;;;5037332;28;20025;-68
2022/07/27 10:18:44;;;;;;;4.38;1.80;;;23.10;59.30;;;;;;5037417;28;20031;-68
2022/07/27 10:21:10;;;;;;;4.60;2.20;;;23.10;59.30;;;;;;5053916;28;20036;-68
2022/07/27 10:23:37;;;;;;;4.97;1.80;;;23.10;59.30;;;;;;5053608;28;20017;-68
2022/07/27 10:26:16;;;;;;;4.68;1.80;;;23.10;59.30;;;;;;5053628;28;20419;-68
2022/07/27 10:29:07;;;;;;;4.05;1.90;;;23.10;59.30;;;;;;5054728;28;20480;-68
2022/07/27 10:31:37;;;;;;;2.65;1.73;;;23.10;59.30;;;;;;5053557;28;20033;-68
2022/07/27 10:34:08;;;;;;;3.45;1.70;;;23.10;59.30;;;;;;5053426;28;20017;-68
2022/07/27 10:36:33;;;;;;;3.08;1.58;;;23.00;59.30;;;;;;5053535;28;20029;-68
2022/07/27 10:39:04;;;;;;;7.68;2.03;;;23.10;59.30;;;;;;5054356;28;20016;-68
2022/07/27 10:41:40;;;;;;;3.67;1.70;;;23.10;59.30;;;;;;5053416;28;20021;-68
2022/07/27 10:44:17;;;;;;;4.20;1.85;;;23.10;59.40;;;;;;5037645;28;20040;-68
2022/07/27 10:46:57;;;;;;;2.97;1.77;;;23.10;59.40;;;;;;5054278;28;20104;-68
2022/07/27 10:49:27;;;;;;;4.90;1.88;;;23.10;59.30;;;;;;5053336;28;20090;-68
2022/07/27 10:51:54;;;;;;;3.13;1.85;;;23.10;59.30;;;;;;5053083;28;20123;-68
2022/07/27 10:54:36;;;;;;;2.17;1.55;;;23.00;59.30;;;;;;5036598;28;20025;-68
2022/07/27 10:57:04;;;;;;;4.00;1.60;;;23.10;59.40;;;;;;5054445;28;20025;-68
2022/07/27 10:59:38;;;;;;;3.92;1.63;;;23.10;59.40;;;;;;5054099;28;20025;-68
2022/07/27 11:02:13;;;;;;;4.05;1.65;;;23.10;59.40;;;;;;5053118;28;20032;-68
2022/07/27 11:04:44;;;;;;;4.10;1.55;;;23.10;59.40;;;;;;5036395;28;20033;-68
2022/07/27 11:07:10;;;;;;;4.00;1.65;;;23.10;59.50;;;;;;5053804;28;20380;-68
2022/07/27 11:09:36;;;;;;;2.80;1.38;;;23.00;59.40;;;;;;5054158;28;20028;-68
2022/07/27 11:12:03;;;;;;;4.13;1.40;;;23.00;59.40;;;;;;5052699;28;20116;-68
2022/07/27 11:14:29;;;;;;;2.45;1.52;;;23.10;59.50;;;;;;5052693;28;20032;-68
2022/07/27 11:16:56;;;;;;;3.50;1.60;;;23.10;59.50;;;;;;5053752;28;20032;-68
2022/07/27 11:19:22;;;;;;;4.03;1.48;;;23.10;59.50;;;;;;5036273;28;20025;-68
2022/07/27 11:21:48;;;;;;;3.85;1.48;;;23.10;59.50;;;;;;5052448;28;20029;-68
2022/07/27 11:24:16;;;;;;;3.17;1.55;;;23.10;59.50;;;;;;5052737;28;20536;-68
2022/07/27 11:26:44;;;;;;;3.13;1.30;;;23.10;59.50;;;;;;5052312;28;20052;-68
2022/07/27 11:29:11;;;;;;;2.38;1.30;;;23.00;59.50;;;;;;5053648;28;20017;-68
2022/07/27 11:31:37;;;;;;;2.03;1.42;;;23.10;59.50;;;;;;5053939;28;20025;-68
2022/07/27 11:34:02;;;;;;;4.63;2.10;;;23.10;59.50;;;;;;5052248;28;20421;-68
2022/07/27 11:36:38;;;;;;;1.90;1.35;;;23.10;59.50;;;;;;5053416;28;20025;-68
2022/07/27 11:39:05;;;;;;;2.22;1.45;;;23.10;59.50;;;;;;5053285;28;20021;-68
2022/07/27 11:41:32;;;;;;;2.65;1.52;;;23.10;59.50;;;;;;5053331;28;20071;-68
2022/07/27 11:44:00;;;;;;;2.70;1.50;;;23.10;59.50;;;;;;5052041;28;20124;-68
2022/07/27 11:46:27;;;;;;;4.18;1.38;;;23.00;59.50;;;;;;5035964;28;20096;-68
2022/07/27 11:49:03;;;;;;;3.63;1.60;;;23.10;59.50;;;;;;5052000;28;20021;-68
2022/07/27 11:51:29;;;;;;;2.22;1.40;;;23.10;59.60;;;;;;5053025;28;20388;-68
2022/07/27 11:53:57;;;;;;;4.00;1.33;;;23.10;59.50;;;;;;5035291;28;20557;-68
2022/07/27 11:56:23;;;;;;;3.30;1.55;;;23.10;59.60;;;;;;5035621;28;20027;-68
2022/07/27 11:59:05;;;;;;;1.85;1.27;;;23.10;59.60;;;;;;5052988;28;20575;-68
2022/07/27 12:01:32;;;;;;;3.40;1.50;;;23.10;59.50;;;;;;5053022;28;20487;-68
2022/07/27 12:04:05;;;;;;;2.35;1.38;;;23.10;59.60;;;;;;5052723;28;20025;-68
2022/07/27 12:06:32;;;;;;;3.60;1.58;;;23.10;59.60;;;;;;5051452;28;20025;-68
2022/07/27 12:08:58;;;;;;;2.75;1.67;;;23.00;59.60;;;;;;5051626;28;20138;-68
2022/07/27 12:11:28;;;;;;;2.90;1.35;;;23.10;59.60;;;;;;5051571;28;20107;-68
2022/07/27 12:13:58;;;;;;;2.88;1.75;;;23.10;59.60;;;;;;5051399;28;20045;-68
2022/07/27 12:16:23;;;;;;;3.03;1.73;;;23.00;59.50;;;;;;5051771;28;20111;-68
2022/07/27 12:18:49;;;;;;;1.38;1.15;;;23.10;59.60;;;;;;5052516;28;20523;-68
2022/07/27 12:21:18;;;;;;;1.20;1.10;;;23.10;59.60;;;;;;5051241;28;20112;-68
2022/07/27 12:23:52;;;;;;;2.88;1.33;;;23.10;59.60;;;;;;5035023;28;20021;-68
2022/07/27 12:26:21;;;;;;;3.50;1.40;;;23.10;59.60;;;;;;5052747;28;20025;-68
2022/07/27 12:29:14;;;;;;;1.67;1.40;;;23.10;59.60;;;;;;5052514;28;20036;-68
2022/07/27 12:31:47;;;;;;;4.03;1.23;;;23.10;59.60;;;;;;5052826;28;20514;-68
2022/07/27 12:34:13;;;;;;;2.15;1.40;;;23.10;59.50;;;;;;5052135;28;20083;-68
2022/07/27 12:36:42;;;;;;;3.40;1.50;;;23.10;59.50;;;;;;5052396;28;20032;-68
2022/07/27 12:39:23;;;;;;;1.90;1.35;;;23.10;59.50;;;;;;5052276;28;20052;-68
2022/07/27 12:41:49;;;;;;;2.60;1.33;;;23.10;59.50;;;;;;5052250;28;20029;-68
2022/07/27 12:44:15;;;;;;;2.38;1.20;;;23.10;59.50;;;;;;5051157;28;20025;-68
2022/07/27 12:46:51;;;;;;;1.83;1.10;;;23.10;59.50;;;;;;5051185;28;20107;-68
2022/07/27 12:49:17;;;;;;;2.60;1.40;;;23.10;59.60;;;;;;5052050;28;20024;-68
2022/07/27 12:51:42;;;;;;;2.42;1.23;;;23.10;59.60;;;;;;5051258;28;20036;-68
2022/07/27 12:54:08;;;;;;;3.33;1.83;;;23.10;59.60;;;;;;5051989;28;20025;-68